createdAt,value
2018-05-18T00:01:33.617Z,3.83
2018-05-18T00:04:01.241Z,5.97
2018-05-18T00:06:28.863Z,3.60
2018-05-18T00:08:56.465Z,2.83
2018-05-18T00:11:24.078Z,7.50
2018-05-18T00:13:52.055Z,5.87
2018-05-18T00:16:19.634Z,3.43
2018-05-18T00:18:47.389Z,7.50
2018-05-18T00:21:14.985Z,6.20
2018-05-18T00:23:42.574Z,3.60
2018-05-18T00:26:10.951Z,3.20
2018-05-18T00:28:38.603Z,3.07
2018-05-18T00:31:06.174Z,3.43
2018-05-18T00:33:37.540Z,3.23
2018-05-18T00:36:05.877Z,2.80
2018-05-18T00:38:33.627Z,5.23
2018-05-18T00:41:01.243Z,2.13
2018-05-18T00:43:28.850Z,4.93
2018-05-18T00:45:56.443Z,2.57
2018-05-18T00:48:24.025Z,4.73
2018-05-18T00:50:51.671Z,1.83
2018-05-18T00:53:19.280Z,5.43
2018-05-18T00:55:46.892Z,1.87
2018-05-18T00:58:14.470Z,5.10
2018-05-18T01:00:42.033Z,6.07
2018-05-18T01:03:09.715Z,3.87
2018-05-18T01:05:38.099Z,4.27
2018-05-18T01:08:05.858Z,7.13
2018-05-18T01:10:34.626Z,4.50
2018-05-18T01:13:02.233Z,5.03
2018-05-18T01:15:29.844Z,3.50
2018-05-18T01:17:58.378Z,3.33
2018-05-18T01:20:26.789Z,3.20
2018-05-18T01:22:54.425Z,3.43
2018-05-18T01:25:22.956Z,3.77
2018-05-18T01:27:51.432Z,2.83
2018-05-18T01:30:18.957Z,2.40
2018-05-18T01:32:46.586Z,4.30
2018-05-18T01:35:14.170Z,1.93
2018-05-18T01:37:42.620Z,2.60
2018-05-18T01:40:10.229Z,2.83
2018-05-18T01:42:38.644Z,4.50
2018-05-18T01:45:06.393Z,6.50
2018-05-18T01:47:34.002Z,3.70
2018-05-18T01:50:01.653Z,5.33
2018-05-18T01:52:29.287Z,6.03
2018-05-18T01:54:56.930Z,4.07
2018-05-18T01:57:24.501Z,5.10
2018-05-18T01:59:52.981Z,3.77
2018-05-18T02:02:21.336Z,2.27
2018-05-18T02:04:48.920Z,3.47
2018-05-18T02:07:17.286Z,3.27
2018-05-18T02:09:44.963Z,2.83
2018-05-18T02:12:12.561Z,4.83
2018-05-18T02:14:40.171Z,3.87
2018-05-18T02:17:07.799Z,4.20
2018-05-18T02:19:35.402Z,3.50
2018-05-18T02:22:03.068Z,2.43
2018-05-18T02:24:30.757Z,4.97
2018-05-18T02:26:58.320Z,3.00
2018-05-18T02:29:25.906Z,2.90
2018-05-18T02:31:53.538Z,3.70
2018-05-18T02:34:21.138Z,3.23
2018-05-18T02:36:48.759Z,4.37
2018-05-18T02:39:16.346Z,3.90
2018-05-18T02:41:43.917Z,4.20
2018-05-18T02:44:11.557Z,5.47
2018-05-18T02:46:39.926Z,2.43
2018-05-18T02:49:07.519Z,3.17
2018-05-18T02:51:36.075Z,3.67
2018-05-18T02:54:03.789Z,5.43
2018-05-18T02:56:31.396Z,6.83
2018-05-18T02:58:58.988Z,6.00
2018-05-18T03:01:26.788Z,6.23
2018-05-18T03:03:54.397Z,5.67
2018-05-18T03:06:22.730Z,5.83
2018-05-18T03:08:50.355Z,5.03
2018-05-18T03:11:17.970Z,4.80
2018-05-18T03:13:45.547Z,8.07
2018-05-18T03:16:13.157Z,3.40
2018-05-18T03:18:40.851Z,4.73
2018-05-18T03:21:08.518Z,3.57
2018-05-18T03:23:36.038Z,5.93
2018-05-18T03:26:03.670Z,4.30
2018-05-18T03:28:31.262Z,4.43
2018-05-18T03:30:58.894Z,4.13
2018-05-18T03:33:26.626Z,4.20
2018-05-18T03:35:54.217Z,4.60
2018-05-18T03:38:21.798Z,5.07
2018-05-18T03:40:49.413Z,4.73
2018-05-18T03:43:17.824Z,3.73
2018-05-18T03:45:45.422Z,5.33
2018-05-18T03:48:13.757Z,4.20
2018-05-18T03:50:41.366Z,4.57
2018-05-18T03:53:08.976Z,4.60
2018-05-18T03:55:36.568Z,4.67
2018-05-18T03:58:04.172Z,6.10
2018-05-18T04:00:31.785Z,2.30
2018-05-18T04:03:11.989Z,3.23
2018-05-18T04:05:51.245Z,3.33
2018-05-18T04:08:45.530Z,4.53
2018-05-18T04:11:13.820Z,6.67
2018-05-18T04:13:41.418Z,2.70
2018-05-18T04:16:09.001Z,3.30
2018-05-18T04:18:37.370Z,5.23
2018-05-18T04:21:04.944Z,2.93
2018-05-18T04:23:32.581Z,4.77
2018-05-18T04:26:00.191Z,3.60
2018-05-18T04:28:27.854Z,5.70
2018-05-18T04:30:55.441Z,4.13
2018-05-18T04:33:23.117Z,3.27
2018-05-18T04:35:50.735Z,2.67
2018-05-18T04:38:19.156Z,5.70
2018-05-18T04:40:46.745Z,6.00
2018-05-18T04:43:14.413Z,6.07
2018-05-18T04:45:42.022Z,5.10
2018-05-18T04:48:10.433Z,5.47
2018-05-18T04:50:38.013Z,5.43
2018-05-18T04:53:05.626Z,5.17
2018-05-18T04:55:34.003Z,2.93
2018-05-18T04:58:01.630Z,3.57
2018-05-18T05:00:29.202Z,2.70
2018-05-18T05:02:56.838Z,3.33
2018-05-18T05:05:24.433Z,2.63
2018-05-18T05:07:52.052Z,3.20
2018-05-18T05:10:19.971Z,3.30
2018-05-18T05:12:47.577Z,2.90
2018-05-18T05:15:15.148Z,4.10
2018-05-18T05:17:43.081Z,5.80
2018-05-18T05:20:11.493Z,3.23
2018-05-18T05:22:39.082Z,4.40
2018-05-18T05:25:06.688Z,5.63
2018-05-18T05:27:35.079Z,6.23
2018-05-18T05:30:03.011Z,4.67
2018-05-18T05:32:31.690Z,4.63
2018-05-18T05:34:59.285Z,3.73
2018-05-18T05:37:26.870Z,3.60
2018-05-18T05:39:55.258Z,5.63
2018-05-18T05:42:22.825Z,6.10
2018-05-18T05:44:51.178Z,3.07
2018-05-18T05:47:19.527Z,6.47
2018-05-18T05:49:47.188Z,5.57
2018-05-18T05:52:14.813Z,8.67
2018-05-18T05:54:43.002Z,6.60
2018-05-18T05:57:10.646Z,7.37
2018-05-18T05:59:38.234Z,6.60
2018-05-18T06:02:05.854Z,4.73
2018-05-18T06:04:34.309Z,6.30
2018-05-18T06:07:01.964Z,5.03
2018-05-18T06:09:29.592Z,4.80
2018-05-18T06:11:57.225Z,7.27
2018-05-18T06:14:24.827Z,4.97
2018-05-18T06:16:52.437Z,5.83
2018-05-18T06:19:20.008Z,3.63
2018-05-18T06:21:48.319Z,4.80
2018-05-18T06:24:15.942Z,6.23
2018-05-18T06:26:43.510Z,5.37
2018-05-18T06:29:11.140Z,5.10
2018-05-18T06:31:38.882Z,10.73
2018-05-18T06:34:06.545Z,9.03
2018-05-18T06:36:34.153Z,7.03
2018-05-18T06:39:01.729Z,10.27
2018-05-18T06:41:29.332Z,11.83
2018-05-18T06:43:56.893Z,11.37
2018-05-18T06:46:25.289Z,11.70
2018-05-18T06:48:53.288Z,9.77
2018-05-18T06:51:20.888Z,5.80
2018-05-18T06:53:49.226Z,4.77
2018-05-18T06:56:16.818Z,3.00
2018-05-18T06:58:44.463Z,4.50
2018-05-18T07:01:12.320Z,5.90
2018-05-18T07:03:40.689Z,7.93
2018-05-18T07:06:08.903Z,6.00
2018-05-18T07:08:36.596Z,4.63
2018-05-18T07:11:04.994Z,6.43
2018-05-18T07:13:32.609Z,5.00
2018-05-18T07:16:00.192Z,7.00
2018-05-18T07:18:31.369Z,6.03
2018-05-18T07:20:59.868Z,4.17
2018-05-18T07:23:28.323Z,3.20
2018-05-18T07:25:55.990Z,4.57
2018-05-18T07:28:24.339Z,8.00
2018-05-18T07:30:51.960Z,4.83
2018-05-18T07:33:19.575Z,4.07
2018-05-18T07:35:48.303Z,11.10
2018-05-18T07:38:16.092Z,4.37
2018-05-18T07:40:43.875Z,9.30
2018-05-18T07:43:11.497Z,6.97
2018-05-18T07:45:39.075Z,7.87
2018-05-18T07:48:06.672Z,7.57
2018-05-18T07:50:34.241Z,5.20
2018-05-18T07:53:01.830Z,6.63
2018-05-18T07:55:29.409Z,8.67
2018-05-18T07:57:57.770Z,7.90
2018-05-18T08:00:26.136Z,11.87
2018-05-18T08:02:53.737Z,9.70
2018-05-18T08:05:22.178Z,10.47
2018-05-18T08:07:49.855Z,12.60
2018-05-18T08:10:18.234Z,10.07
2018-05-18T08:12:45.858Z,8.47
2018-05-18T08:15:13.475Z,12.50
2018-05-18T08:17:41.847Z,7.90
2018-05-18T08:20:09.480Z,12.67
2018-05-18T08:22:37.086Z,6.67
2018-05-18T08:25:04.918Z,8.03
2018-05-18T08:27:32.578Z,6.63
2018-05-18T08:30:00.647Z,4.40
2018-05-18T08:32:28.333Z,9.67
2018-05-18T08:34:56.095Z,10.60
2018-05-18T08:37:23.892Z,10.37
2018-05-18T08:39:51.826Z,11.73
2018-05-18T08:42:19.438Z,8.00
2018-05-18T08:44:47.036Z,5.20
2018-05-18T08:47:14.756Z,8.17
2018-05-18T08:49:43.181Z,12.60
2018-05-18T08:52:11.570Z,6.47
2018-05-18T08:54:39.295Z,8.37
2018-05-18T08:57:07.818Z,8.17
2018-05-18T08:59:35.959Z,6.57
2018-05-18T09:02:03.598Z,5.70
2018-05-18T09:04:31.309Z,9.47
2018-05-18T09:06:59.095Z,5.33
2018-05-18T09:09:26.862Z,9.93
2018-05-18T09:11:54.521Z,6.53
2018-05-18T09:14:22.109Z,10.13
2018-05-18T09:16:49.772Z,5.00
2018-05-18T09:19:17.342Z,7.13
2018-05-18T09:21:45.030Z,14.93
2018-05-18T09:24:13.429Z,9.60
2018-05-18T09:26:41.082Z,7.30
2018-05-18T09:29:08.697Z,9.53
2018-05-18T09:31:38.343Z,9.07
2018-05-18T09:34:06.946Z,4.97
2018-05-18T09:36:34.590Z,6.27
2018-05-18T09:39:02.288Z,5.20
2018-05-18T09:41:29.983Z,4.57
2018-05-18T09:43:57.666Z,9.53
2018-05-18T09:46:26.038Z,8.33
2018-05-18T09:48:53.643Z,9.60
2018-05-18T09:51:22.021Z,7.33
2018-05-18T09:53:49.643Z,10.57
2018-05-18T09:56:17.250Z,12.43
2018-05-18T09:58:44.946Z,8.07
2018-05-18T10:01:12.565Z,5.80
2018-05-18T10:03:40.161Z,6.60
2018-05-18T10:06:08.576Z,8.60
2018-05-18T10:08:36.258Z,5.03
2018-05-18T10:11:05.267Z,7.30
2018-05-18T10:13:33.703Z,4.27
2018-05-18T10:16:01.574Z,7.30
2018-05-18T10:18:30.206Z,5.40
2018-05-18T10:20:59.397Z,8.30
2018-05-18T10:23:27.550Z,8.47
2018-05-18T10:25:55.217Z,10.57
2018-05-18T10:28:26.984Z,9.07
2018-05-18T10:30:54.743Z,7.50
2018-05-18T10:33:22.505Z,6.80
2018-05-18T10:35:50.547Z,9.73
2018-05-18T10:38:18.274Z,7.00
2018-05-18T10:40:46.699Z,8.33
2018-05-18T10:43:16.596Z,7.77
2018-05-18T10:45:45.696Z,8.33
2018-05-18T10:48:14.159Z,8.03
2018-05-18T10:50:42.834Z,8.33
2018-05-18T10:53:10.987Z,12.53
2018-05-18T10:55:39.942Z,10.07
2018-05-18T10:58:08.011Z,12.77
2018-05-18T11:00:36.843Z,9.37
2018-05-18T11:03:06.414Z,6.90
2018-05-18T11:05:34.133Z,6.93
2018-05-18T11:08:02.065Z,7.10
2018-05-18T11:10:29.693Z,12.80
2018-05-18T11:12:57.396Z,7.83
2018-05-18T11:15:26.606Z,5.20
2018-05-18T11:17:55.026Z,10.77
2018-05-18T11:20:23.309Z,7.23
2018-05-18T11:22:51.322Z,9.40
2018-05-18T11:25:19.812Z,10.30
2018-05-18T11:27:48.267Z,15.67
2018-05-18T11:30:16.411Z,10.97
2018-05-18T11:32:46.245Z,12.33
2018-05-18T11:35:16.882Z,9.03
2018-05-18T11:37:46.467Z,9.87
2018-05-18T11:40:15.085Z,8.93
2018-05-18T11:42:42.713Z,11.63
2018-05-18T11:45:10.354Z,7.33
2018-05-18T11:47:38.821Z,9.67
2018-05-18T11:50:07.221Z,10.63
2018-05-18T11:52:34.889Z,6.47
2018-05-18T11:55:02.466Z,10.77
2018-05-18T11:57:30.073Z,13.50
2018-05-18T11:59:57.710Z,7.50
2018-05-18T12:02:25.351Z,5.93
2018-05-18T12:04:53.162Z,9.50
2018-05-18T12:07:20.867Z,6.73
2018-05-18T12:09:48.966Z,6.57
2018-05-18T12:12:16.569Z,9.37
2018-05-18T12:14:44.254Z,10.60
2018-05-18T12:17:11.849Z,8.70
2018-05-18T12:19:41.382Z,10.53
2018-05-18T12:22:08.986Z,6.73
2018-05-18T12:24:36.587Z,10.97
2018-05-18T12:27:04.897Z,8.13
2018-05-18T12:29:32.555Z,11.40
2018-05-18T12:32:00.383Z,9.80
2018-05-18T12:34:27.974Z,9.10
2018-05-18T12:36:56.343Z,9.07
2018-05-18T12:39:23.937Z,5.13
2018-05-18T12:41:53.375Z,9.13
2018-05-18T12:44:21.025Z,11.20
2018-05-18T12:46:48.621Z,7.60
2018-05-18T12:49:16.989Z,10.47
2018-05-18T12:51:44.601Z,10.20
2018-05-18T12:54:12.276Z,10.67
2018-05-18T12:56:39.921Z,5.83
2018-05-18T12:59:08.418Z,6.53
2018-05-18T13:01:36.021Z,7.77
2018-05-18T13:04:03.801Z,4.97
2018-05-18T13:06:31.406Z,6.57
2018-05-18T13:08:59.025Z,5.60
2018-05-18T13:11:26.670Z,6.07
2018-05-18T13:13:54.264Z,9.37
2018-05-18T13:16:22.632Z,5.80
2018-05-18T13:18:50.264Z,6.17
2018-05-18T13:21:18.025Z,8.17
2018-05-18T13:23:45.614Z,8.47
2018-05-18T13:26:13.849Z,7.07
2018-05-18T13:28:41.446Z,4.77
2018-05-18T13:31:09.807Z,8.53
2018-05-18T13:33:37.557Z,7.30
2018-05-18T13:36:05.388Z,8.73
2018-05-18T13:38:33.251Z,6.10
2018-05-18T13:41:01.058Z,7.00
2018-05-18T13:43:28.710Z,7.97
2018-05-18T13:45:56.437Z,8.00
2018-05-18T13:48:24.105Z,5.80
2018-05-18T13:50:52.048Z,5.80
2018-05-18T13:53:19.794Z,6.47
2018-05-18T13:55:47.496Z,5.90
2018-05-18T13:58:15.270Z,8.93
2018-05-18T14:00:42.968Z,6.03
2018-05-18T14:03:11.335Z,6.73
2018-05-18T14:05:39.255Z,5.33
2018-05-18T14:08:07.821Z,4.53
2018-05-18T14:10:36.163Z,8.57
2018-05-18T14:13:08.025Z,5.73
2018-05-18T14:15:37.313Z,6.10
2018-05-18T14:18:05.896Z,4.37
2018-05-18T14:20:34.487Z,4.90
2018-05-18T14:23:02.935Z,5.37
2018-05-18T14:25:30.570Z,4.67
2018-05-18T14:27:58.940Z,6.73
2018-05-18T14:30:26.567Z,7.33
2018-05-18T14:32:54.260Z,6.73
2018-05-18T14:35:22.550Z,6.67
2018-05-18T14:37:50.739Z,4.90
2018-05-18T14:40:19.169Z,9.17
2018-05-18T14:42:46.916Z,5.63
2018-05-18T14:45:14.658Z,5.23
2018-05-18T14:47:42.285Z,5.47
2018-05-18T14:50:09.928Z,7.30
2018-05-18T14:52:37.510Z,6.27
2018-05-18T14:55:06.058Z,8.80
2018-05-18T14:57:33.660Z,6.77
2018-05-18T15:00:01.342Z,7.23
2018-05-18T15:02:28.946Z,6.27
2018-05-18T15:04:56.523Z,7.03
2018-05-18T15:07:24.300Z,8.93
2018-05-18T15:09:52.053Z,9.52
2018-05-18T15:12:19.704Z,8.73
2018-05-18T15:14:47.314Z,8.33
2018-05-18T15:17:14.956Z,9.45
2018-05-18T15:19:42.551Z,5.82
2018-05-18T15:22:10.604Z,7.37
2018-05-18T15:24:38.917Z,10.88
2018-05-18T15:27:07.299Z,6.65
2018-05-18T15:29:36.166Z,6.37
2018-05-18T15:32:05.153Z,7.65
2018-05-18T15:34:33.811Z,7.12
2018-05-18T15:37:01.481Z,7.50
2018-05-18T15:39:29.211Z,7.30
2018-05-18T15:41:56.833Z,5.37
2018-05-18T15:44:24.582Z,10.38
2018-05-18T15:46:52.285Z,6.60
2018-05-18T15:49:20.148Z,9.40
2018-05-18T15:51:47.861Z,4.97
2018-05-18T15:54:15.579Z,3.28
2018-05-18T15:56:43.185Z,9.90
2018-05-18T15:59:11.639Z,4.97
2018-05-18T16:01:39.590Z,5.47
2018-05-18T16:04:07.359Z,6.03
2018-05-18T16:06:35.149Z,5.87
2018-05-18T16:09:04.407Z,6.25
2018-05-18T16:11:32.078Z,7.62
2018-05-18T16:14:00.679Z,7.43
2018-05-18T16:16:28.471Z,6.00
2018-05-18T16:18:56.129Z,4.87
2018-05-18T16:21:23.790Z,4.65
2018-05-18T16:23:51.433Z,7.85
2018-05-18T16:26:19.092Z,7.57
2018-05-18T16:28:46.773Z,5.50
2018-05-18T16:31:14.380Z,11.25
2018-05-18T16:33:42.755Z,8.02
2018-05-18T16:36:11.621Z,5.22
2018-05-18T16:38:39.391Z,6.10
2018-05-18T16:41:07.000Z,8.07
2018-05-18T16:43:34.616Z,4.93
2018-05-18T16:46:02.269Z,8.32
2018-05-18T16:48:29.933Z,5.57
2018-05-18T16:50:57.700Z,6.75
2018-05-18T16:53:26.113Z,5.57
2018-05-18T16:55:53.762Z,6.62
2018-05-18T16:58:21.416Z,6.30
2018-05-18T17:00:49.214Z,5.72
2018-05-18T17:03:16.892Z,4.80
2018-05-18T17:05:45.188Z,6.65
2018-05-18T17:08:12.979Z,5.90
2018-05-18T17:10:40.681Z,6.78
2018-05-18T17:13:09.093Z,7.22
2018-05-18T17:15:36.687Z,5.95
2018-05-18T17:18:04.338Z,8.05
2018-05-18T17:20:31.950Z,6.95
2018-05-18T17:22:59.555Z,7.50
2018-05-18T17:25:27.170Z,6.35
2018-05-18T17:27:54.853Z,4.57
2018-05-18T17:30:28.484Z,6.47
2018-05-18T17:32:56.148Z,6.35
2018-05-18T17:35:23.884Z,11.30
2018-05-18T17:37:51.585Z,5.37
2018-05-18T17:40:19.252Z,4.43
2018-05-18T17:42:46.910Z,8.48
2018-05-18T17:45:18.520Z,7.60
2018-05-18T17:47:46.909Z,7.75
2018-05-18T17:50:15.456Z,6.53
2018-05-18T17:52:43.405Z,7.20
2018-05-18T17:55:11.802Z,5.80
2018-05-18T17:57:39.589Z,8.05
2018-05-18T18:00:07.185Z,8.30
2018-05-18T18:02:34.786Z,6.05
2018-05-18T18:05:02.365Z,8.23
2018-05-18T18:07:29.973Z,5.15
2018-05-18T18:09:57.951Z,6.25
2018-05-18T18:12:25.545Z,4.15
2018-05-18T18:14:53.149Z,8.50
2018-05-18T18:17:20.753Z,6.20
2018-05-18T18:19:49.321Z,7.32
2018-05-18T18:22:16.900Z,7.45
2018-05-18T18:24:46.151Z,8.27
2018-05-18T18:27:14.611Z,7.95
2018-05-18T18:29:42.238Z,15.02
2018-05-18T18:32:09.837Z,10.97
2018-05-18T18:34:37.441Z,14.33
2018-05-18T18:37:05.049Z,8.90
2018-05-18T18:39:32.677Z,9.97
2018-05-18T18:42:00.252Z,11.13
2018-05-18T18:44:27.861Z,9.83
2018-05-18T18:46:55.438Z,10.03
2018-05-18T18:49:23.047Z,13.00
2018-05-18T18:51:51.465Z,9.67
2018-05-18T18:54:19.032Z,10.77
2018-05-18T18:56:46.603Z,11.20
2018-05-18T18:59:14.205Z,8.87
2018-05-18T19:01:41.772Z,14.37
2018-05-18T19:04:09.387Z,11.57
2018-05-18T19:06:36.974Z,10.60
2018-05-18T19:09:07.383Z,8.57
2018-05-18T19:11:34.998Z,11.23
2018-05-18T19:14:02.724Z,11.80
2018-05-18T19:16:30.293Z,12.03
2018-05-18T19:18:57.930Z,12.97
2018-05-18T19:21:25.718Z,12.43
2018-05-18T19:23:53.307Z,13.47
2018-05-18T19:26:20.925Z,10.17
2018-05-18T19:28:48.576Z,12.77
2018-05-18T19:31:16.921Z,9.93
2018-05-18T19:33:44.547Z,14.53
2018-05-18T19:36:12.129Z,12.00
2018-05-18T19:38:39.729Z,12.57
2018-05-18T19:41:08.152Z,12.03
2018-05-18T19:43:35.753Z,10.73
2018-05-18T19:46:03.362Z,10.93
2018-05-18T19:48:30.954Z,14.23
2018-05-18T19:50:58.561Z,12.97
2018-05-18T19:53:26.139Z,16.57
2018-05-18T19:55:53.742Z,17.93
2018-05-18T19:58:21.342Z,14.13
2018-05-18T20:00:48.951Z,9.20
2018-05-18T20:03:16.594Z,10.87
2018-05-18T20:05:44.845Z,13.10
2018-05-18T20:08:12.445Z,11.60
2018-05-18T20:10:42.129Z,12.87
2018-05-18T20:13:09.703Z,11.53
2018-05-18T20:15:37.306Z,15.57
2018-05-18T20:18:04.914Z,12.13
2018-05-18T20:20:33.303Z,10.53
2018-05-18T20:23:00.921Z,10.07
2018-05-18T20:25:29.081Z,8.30
2018-05-18T20:27:56.660Z,18.33
2018-05-18T20:30:24.269Z,11.70
2018-05-18T20:32:51.855Z,10.50
2018-05-18T20:35:20.225Z,8.43
2018-05-18T20:37:49.226Z,8.43
2018-05-18T20:40:17.748Z,8.90
2018-05-18T20:42:45.314Z,9.23
2018-05-18T20:45:12.963Z,8.63
2018-05-18T20:47:41.285Z,9.87
2018-05-18T20:50:08.858Z,12.60
2018-05-18T20:52:36.483Z,11.73
2018-05-18T20:55:04.086Z,15.70
2018-05-18T20:57:31.669Z,11.30
2018-05-18T21:00:00.063Z,13.33
2018-05-18T21:02:27.675Z,12.40
2018-05-18T21:04:55.310Z,10.53
2018-05-18T21:07:22.940Z,9.83
2018-05-18T21:09:51.315Z,11.03
2018-05-18T21:12:18.936Z,9.67
2018-05-18T21:14:46.616Z,10.90
2018-05-18T21:17:14.254Z,10.83
2018-05-18T21:19:42.078Z,10.17
2018-05-18T21:22:10.489Z,10.47
2018-05-18T21:24:38.094Z,12.43
2018-05-18T21:27:05.708Z,14.40
2018-05-18T21:29:33.284Z,12.13
2018-05-18T21:32:00.899Z,11.90
2018-05-18T21:34:28.543Z,10.63
2018-05-18T21:36:56.392Z,10.17
2018-05-18T21:39:24.049Z,8.90
2018-05-18T21:41:51.791Z,12.00
2018-05-18T21:44:20.167Z,12.00
2018-05-18T21:46:48.548Z,9.67
2018-05-18T21:49:16.890Z,9.73
2018-05-18T21:51:44.540Z,11.80
2018-05-18T21:54:12.155Z,9.13
2018-05-18T21:56:39.753Z,9.43
2018-05-18T21:59:07.366Z,14.07
2018-05-18T22:01:34.941Z,13.50
2018-05-18T22:04:02.549Z,8.27
2018-05-18T22:06:30.315Z,5.57
2018-05-18T22:08:58.611Z,11.93
2018-05-18T22:11:26.216Z,5.53
2018-05-18T22:13:54.306Z,6.07
2018-05-18T22:16:21.969Z,8.50
2018-05-18T22:18:49.677Z,4.53
2018-05-18T22:21:18.434Z,5.60
2018-05-18T22:23:46.188Z,7.67
2018-05-18T22:26:13.967Z,6.47
2018-05-18T22:28:41.624Z,5.50
2018-05-18T22:31:10.001Z,4.40
2018-05-18T22:33:40.162Z,8.73
2018-05-18T22:36:08.434Z,6.87
2018-05-18T22:38:36.535Z,6.37
2018-05-18T22:41:05.000Z,6.03
2018-05-18T22:43:34.420Z,5.90
2018-05-18T22:46:06.270Z,5.90
2018-05-18T22:48:37.925Z,6.00
2018-05-18T22:51:09.182Z,4.17
2018-05-18T22:53:38.283Z,5.50
2018-05-18T22:56:07.902Z,4.27
2018-05-18T22:58:39.462Z,6.97
2018-05-18T23:01:10.142Z,5.33
2018-05-18T23:03:39.706Z,5.43
2018-05-18T23:06:07.921Z,7.17
2018-05-18T23:08:38.902Z,10.77
2018-05-18T23:11:07.568Z,7.20
2018-05-18T23:13:35.347Z,6.77
2018-05-18T23:16:03.400Z,7.47
2018-05-18T23:18:32.251Z,5.10
2018-05-18T23:21:01.323Z,6.43
2018-05-18T23:23:29.174Z,5.20
2018-05-18T23:25:56.868Z,8.43
2018-05-18T23:28:24.498Z,8.13
2018-05-18T23:30:52.645Z,5.77
2018-05-18T23:33:21.780Z,9.27
2018-05-18T23:35:49.612Z,8.70
2018-05-18T23:38:17.587Z,7.37
2018-05-18T23:40:45.566Z,7.73
2018-05-18T23:43:14.293Z,8.73
2018-05-18T23:45:42.314Z,10.83
2018-05-18T23:48:10.164Z,7.47
2018-05-18T23:50:38.018Z,10.00
2018-05-18T23:53:06.878Z,10.03
2018-05-18T23:55:34.697Z,11.97
2018-05-18T23:58:03.904Z,9.20
